CPA750 VABB-OMDB
Flight info
| Callsign | CPA750 |
|---|---|
| Flight time | 2h 21m |
| Altitude | 38000 |
| Route | OMKIS2B SAKUN V2 SUGID N571 VUSET A454 PASOV B540 KUPMA/N0492F240 B540 MIVEK P574 IMPED |
| Aircraft | B742/H-SDFHIRWXY/L |
Departure
| Time | 2026-05-07 14:21 |
|---|---|
| Airport | Chhatrapati Shivaji Maharaj International Airport (VABB) |
Arrival
| Time | 2026-05-07 16:43 |
|---|---|
| Airport | Dubai International Airport (OMDB) |
| Time | Latitude | Longitude | Altitude | Speed | Heading |
|---|---|---|---|---|---|
| 2026-05-07 13:44 | 19.09318 | 72.87148 | 35 ft | 0 kts | 360° |
| 2026-05-07 14:06 | 19.09304 | 72.87148 | 35 ft | 2 kts | 360° |
| 2026-05-07 14:06 | 19.09289 | 72.87148 | 34 ft | 2 kts | 4° |
| 2026-05-07 14:06 | 19.09275 | 72.87145 | 34 ft | 2 kts | 22° |
| 2026-05-07 14:07 | 19.09261 | 72.87138 | 34 ft | 2 kts | 35° |
| 2026-05-07 14:07 | 19.09256 | 72.87133 | 34 ft | 2 kts | 41° |
| 2026-05-07 14:07 | 19.09245 | 72.87122 | 34 ft | 2 kts | 55° |
| 2026-05-07 14:07 | 19.09238 | 72.87108 | 34 ft | 2 kts | 69° |
| 2026-05-07 14:08 | 19.09234 | 72.87093 | 33 ft | 2 kts | 83° |
| 2026-05-07 14:08 | 19.09233 | 72.87083 | 33 ft | 1 kts | 90° |
| 2026-05-07 14:08 | 19.09233 | 72.87081 | 33 ft | 0 kts | 90° |
| 2026-05-07 14:15 | 19.09233 | 72.87084 | 33 ft | 1 kts | 90° |
| 2026-05-07 14:15 | 19.09233 | 72.87116 | 33 ft | 6 kts | 90° |
| 2026-05-07 14:15 | 19.09234 | 72.87184 | 33 ft | 10 kts | 89° |
| 2026-05-07 14:15 | 19.09228 | 72.87257 | 33 ft | 7 kts | 145° |
| 2026-05-07 14:16 | 19.09174 | 72.87266 | 32 ft | 9 kts | 174° |
| 2026-05-07 14:16 | 19.09098 | 72.87267 | 31 ft | 11 kts | 180° |
| 2026-05-07 14:16 | 19.09055 | 72.87307 | 30 ft | 9 kts | 100° |
| 2026-05-07 14:16 | 19.09050 | 72.87381 | 30 ft | 10 kts | 89° |
| 2026-05-07 14:17 | 19.09052 | 72.87464 | 30 ft | 13 kts | 88° |
| 2026-05-07 14:17 | 19.09053 | 72.87582 | 30 ft | 19 kts | 89° |
| 2026-05-07 14:17 | 19.09056 | 72.87737 | 31 ft | 21 kts | 89° |
| 2026-05-07 14:17 | 19.09058 | 72.87894 | 34 ft | 20 kts | 89° |
| 2026-05-07 14:18 | 19.09061 | 72.88019 | 35 ft | 11 kts | 89° |
| 2026-05-07 14:18 | 19.09060 | 72.88026 | 35 ft | 9 kts | 99° |
| 2026-05-07 14:18 | 19.09046 | 72.88054 | 35 ft | 5 kts | 161° |
| 2026-05-07 14:19 | 19.09004 | 72.88055 | 35 ft | 6 kts | 181° |
| 2026-05-07 14:19 | 19.08955 | 72.88055 | 35 ft | 7 kts | 181° |
| 2026-05-07 14:19 | 19.08902 | 72.88049 | 35 ft | 7 kts | 205° |
| 2026-05-07 14:19 | 19.08888 | 72.88021 | 35 ft | 0 kts | 269° |
| 2026-05-07 14:20 | 19.08888 | 72.88017 | 35 ft | 5 kts | 269° |
| 2026-05-07 14:20 | 19.08885 | 72.87731 | 31 ft | 74 kts | 269° |
| 2026-05-07 14:21 | 19.08873 | 72.86946 | 30 ft | 137 kts | 270° |
| 2026-05-07 14:21 | 19.08854 | 72.85837 | 178 ft | 169 kts | 270° |
| 2026-05-07 14:21 | 19.08826 | 72.84682 | 606 ft | 176 kts | 272° |
| 2026-05-07 14:21 | 19.08807 | 72.83456 | 1107 ft | 182 kts | 272° |
| 2026-05-07 14:22 | 19.08783 | 72.82107 | 1669 ft | 189 kts | 273° |
| 2026-05-07 14:22 | 19.08770 | 72.80684 | 2158 ft | 201 kts | 273° |
| 2026-05-07 14:22 | 19.08756 | 72.79168 | 2446 ft | 212 kts | 273° |
| 2026-05-07 14:22 | 19.08737 | 72.77577 | 2736 ft | 219 kts | 272° |
| 2026-05-07 14:23 | 19.08719 | 72.76104 | 2966 ft | 228 kts | 272° |
| 2026-05-07 14:23 | 19.08714 | 72.75763 | 3016 ft | 231 kts | 272° |
| 2026-05-07 14:23 | 19.08737 | 72.74007 | 3256 ft | 243 kts | 279° |
| 2026-05-07 14:23 | 19.08959 | 72.72194 | 3492 ft | 257 kts | 280° |
| 2026-05-07 14:24 | 19.09155 | 72.70615 | 3688 ft | 270 kts | 279° |
| 2026-05-07 14:24 | 19.09364 | 72.68822 | 3898 ft | 285 kts | 279° |
| 2026-05-07 14:24 | 19.09597 | 72.66718 | 4430 ft | 289 kts | 278° |
| 2026-05-07 14:24 | 19.09820 | 72.64652 | 5222 ft | 282 kts | 278° |
| 2026-05-07 14:25 | 19.10043 | 72.62591 | 5836 ft | 282 kts | 278° |
| 2026-05-07 14:25 | 19.10264 | 72.60549 | 6412 ft | 282 kts | 277° |
| 2026-05-07 14:25 | 19.10489 | 72.58468 | 6955 ft | 284 kts | 277° |
| 2026-05-07 14:25 | 19.10712 | 72.56401 | 7441 ft | 285 kts | 277° |
| 2026-05-07 14:26 | 19.10847 | 72.55139 | 7753 ft | 286 kts | 277° |
| 2026-05-07 14:26 | 19.11062 | 72.53149 | 8306 ft | 286 kts | 277° |
| 2026-05-07 14:26 | 19.11105 | 72.52750 | 8413 ft | 286 kts | 277° |
| 2026-05-07 14:26 | 19.11292 | 72.51013 | 8822 ft | 289 kts | 276° |
| 2026-05-07 14:27 | 19.11508 | 72.49002 | 9124 ft | 299 kts | 276° |
| 2026-05-07 14:27 | 19.11617 | 72.47990 | 9256 ft | 304 kts | 276° |
| 2026-05-07 14:27 | 19.11832 | 72.45987 | 9518 ft | 316 kts | 276° |
| 2026-05-07 14:27 | 19.12086 | 72.43614 | 9778 ft | 330 kts | 276° |
| 2026-05-07 14:28 | 19.12348 | 72.41174 | 10036 ft | 344 kts | 276° |
| 2026-05-07 14:28 | 19.12628 | 72.38586 | 10303 ft | 357 kts | 277° |
| 2026-05-07 14:28 | 19.13160 | 72.36000 | 10566 ft | 371 kts | 287° |
| 2026-05-07 14:28 | 19.14034 | 72.33398 | 11023 ft | 377 kts | 291° |
| 2026-05-07 14:29 | 19.15031 | 72.30793 | 11672 ft | 379 kts | 292° |
| 2026-05-07 14:29 | 19.16015 | 72.28303 | 12199 ft | 383 kts | 292° |
| 2026-05-07 14:29 | 19.17055 | 72.25678 | 12810 ft | 387 kts | 292° |
| 2026-05-07 14:29 | 19.18083 | 72.23070 | 13370 ft | 391 kts | 292° |
| 2026-05-07 14:30 | 19.18475 | 72.22072 | 13615 ft | 391 kts | 292° |
| 2026-05-07 14:30 | 19.19159 | 72.20330 | 14048 ft | 391 kts | 292° |
| 2026-05-07 14:30 | 19.20208 | 72.17651 | 14646 ft | 393 kts | 292° |
| 2026-05-07 14:30 | 19.21253 | 72.14980 | 15249 ft | 395 kts | 292° |
| 2026-05-07 14:31 | 19.22309 | 72.12284 | 15836 ft | 396 kts | 293° |
| 2026-05-07 14:31 | 19.22970 | 72.10593 | 16178 ft | 398 kts | 293° |
| 2026-05-07 14:31 | 19.23981 | 72.08008 | 16721 ft | 400 kts | 293° |
| 2026-05-07 14:31 | 19.24832 | 72.05831 | 17167 ft | 401 kts | 293° |
| 2026-05-07 14:32 | 19.25264 | 72.04726 | 17387 ft | 402 kts | 293° |
| 2026-05-07 14:32 | 19.26163 | 72.02425 | 17854 ft | 403 kts | 294° |
| 2026-05-07 14:32 | 19.27065 | 72.00113 | 18338 ft | 403 kts | 294° |
| 2026-05-07 14:32 | 19.28142 | 71.97353 | 18895 ft | 403 kts | 294° |
| 2026-05-07 14:33 | 19.29223 | 71.94583 | 19422 ft | 405 kts | 294° |
| 2026-05-07 14:33 | 19.30297 | 71.91830 | 19911 ft | 406 kts | 294° |
| 2026-05-07 14:33 | 19.31373 | 71.89069 | 20412 ft | 407 kts | 295° |
| 2026-05-07 14:33 | 19.32450 | 71.86304 | 20890 ft | 408 kts | 295° |
| 2026-05-07 14:34 | 19.33525 | 71.83543 | 21340 ft | 408 kts | 295° |
| 2026-05-07 14:34 | 19.34600 | 71.80782 | 21767 ft | 410 kts | 295° |
| 2026-05-07 14:34 | 19.35695 | 71.77967 | 22191 ft | 411 kts | 295° |
| 2026-05-07 14:34 | 19.36783 | 71.75173 | 22571 ft | 414 kts | 295° |
| 2026-05-07 14:35 | 19.37879 | 71.72358 | 22937 ft | 417 kts | 295° |
| 2026-05-07 14:35 | 19.38980 | 71.69526 | 23323 ft | 420 kts | 295° |
| 2026-05-07 14:35 | 19.40101 | 71.66640 | 23712 ft | 422 kts | 295° |
| 2026-05-07 14:35 | 19.41219 | 71.63759 | 24049 ft | 425 kts | 295° |
| 2026-05-07 14:36 | 19.42338 | 71.60876 | 24470 ft | 426 kts | 295° |
| 2026-05-07 14:36 | 19.43462 | 71.57975 | 24836 ft | 429 kts | 294° |
| 2026-05-07 14:36 | 19.44596 | 71.55048 | 25159 ft | 432 kts | 294° |
| 2026-05-07 14:36 | 19.45734 | 71.52112 | 25504 ft | 435 kts | 294° |
| 2026-05-07 14:37 | 19.46886 | 71.49133 | 25860 ft | 437 kts | 294° |
| 2026-05-07 14:37 | 19.49193 | 71.43166 | 26554 ft | 441 kts | 294° |
| 2026-05-07 14:37 | 19.50362 | 71.40138 | 26854 ft | 444 kts | 294° |
| 2026-05-07 14:38 | 19.51519 | 71.37139 | 27184 ft | 446 kts | 294° |
| 2026-05-07 14:38 | 19.52706 | 71.34062 | 27498 ft | 448 kts | 293° |
| 2026-05-07 14:38 | 19.53874 | 71.31004 | 27830 ft | 450 kts | 293° |
| 2026-05-07 14:38 | 19.55045 | 71.27930 | 28131 ft | 451 kts | 293° |
| 2026-05-07 14:39 | 19.56218 | 71.24857 | 28415 ft | 454 kts | 293° |
| 2026-05-07 14:39 | 19.57406 | 71.21755 | 28717 ft | 455 kts | 293° |
| 2026-05-07 14:39 | 19.58599 | 71.18643 | 28987 ft | 457 kts | 293° |
| 2026-05-07 14:39 | 19.59795 | 71.15530 | 29257 ft | 458 kts | 293° |
| 2026-05-07 14:40 | 19.60993 | 71.12408 | 29500 ft | 460 kts | 293° |
| 2026-05-07 14:40 | 19.62205 | 71.09250 | 29757 ft | 462 kts | 293° |
| 2026-05-07 14:40 | 19.63418 | 71.06089 | 29962 ft | 464 kts | 292° |
| 2026-05-07 14:40 | 19.64635 | 71.02916 | 30193 ft | 466 kts | 292° |
| 2026-05-07 14:41 | 19.65840 | 70.99771 | 30425 ft | 467 kts | 292° |
| 2026-05-07 14:41 | 19.67063 | 70.96580 | 30613 ft | 470 kts | 292° |
| 2026-05-07 14:41 | 19.68308 | 70.93326 | 30856 ft | 471 kts | 292° |
| 2026-05-07 14:41 | 19.69533 | 70.90125 | 31058 ft | 473 kts | 292° |
| 2026-05-07 14:42 | 19.70777 | 70.86871 | 31288 ft | 474 kts | 292° |
| 2026-05-07 14:42 | 19.72000 | 70.83669 | 31481 ft | 475 kts | 292° |
| 2026-05-07 14:42 | 19.73256 | 70.80379 | 31715 ft | 476 kts | 292° |
| 2026-05-07 14:42 | 19.74501 | 70.77117 | 31892 ft | 478 kts | 292° |
| 2026-05-07 14:43 | 19.75742 | 70.73862 | 32107 ft | 479 kts | 292° |
| 2026-05-07 14:43 | 19.76985 | 70.70600 | 32291 ft | 481 kts | 292° |
| 2026-05-07 14:43 | 19.78232 | 70.67326 | 32488 ft | 482 kts | 292° |
| 2026-05-07 14:43 | 19.79488 | 70.64026 | 32666 ft | 484 kts | 292° |
| 2026-05-07 14:44 | 19.80760 | 70.60683 | 32890 ft | 485 kts | 292° |
| 2026-05-07 14:44 | 19.82014 | 70.57384 | 33072 ft | 487 kts | 292° |
| 2026-05-07 14:44 | 19.83288 | 70.54029 | 33265 ft | 489 kts | 292° |
| 2026-05-07 14:44 | 19.84559 | 70.50682 | 33454 ft | 490 kts | 292° |
| 2026-05-07 14:45 | 19.85836 | 70.47315 | 33622 ft | 492 kts | 292° |
| 2026-05-07 14:45 | 19.87101 | 70.43979 | 33814 ft | 494 kts | 292° |
| 2026-05-07 14:45 | 19.88397 | 70.40560 | 33990 ft | 495 kts | 292° |
| 2026-05-07 14:45 | 19.89678 | 70.37175 | 34113 ft | 497 kts | 292° |
| 2026-05-07 14:46 | 19.90961 | 70.33782 | 34265 ft | 497 kts | 291° |
| 2026-05-07 14:46 | 19.92239 | 70.30372 | 34397 ft | 498 kts | 291° |
| 2026-05-07 14:46 | 19.93517 | 70.26951 | 34510 ft | 499 kts | 291° |
| 2026-05-07 14:46 | 19.94800 | 70.23526 | 34613 ft | 499 kts | 291° |
| 2026-05-07 14:47 | 19.97374 | 70.16678 | 34743 ft | 500 kts | 291° |
| 2026-05-07 14:47 | 19.99946 | 70.09847 | 34843 ft | 500 kts | 291° |
| 2026-05-07 14:48 | 20.02529 | 70.02982 | 34865 ft | 501 kts | 291° |
| 2026-05-07 14:48 | 20.05117 | 69.96095 | 34887 ft | 501 kts | 291° |
| 2026-05-07 14:49 | 20.07699 | 69.89213 | 34903 ft | 502 kts | 292° |
| 2026-05-07 14:49 | 20.10278 | 69.82331 | 34896 ft | 502 kts | 292° |
| 2026-05-07 14:50 | 20.12846 | 69.75463 | 34876 ft | 503 kts | 292° |
| 2026-05-07 14:50 | 20.15427 | 69.68552 | 34912 ft | 503 kts | 292° |
| 2026-05-07 14:51 | 20.18009 | 69.61635 | 34912 ft | 501 kts | 292° |
| 2026-05-07 14:51 | 20.20565 | 69.54776 | 34911 ft | 499 kts | 291° |
| 2026-05-07 14:52 | 20.23092 | 69.47988 | 34911 ft | 489 kts | 291° |
| 2026-05-07 14:52 | 20.25574 | 69.41310 | 34914 ft | 488 kts | 292° |
| 2026-05-07 14:53 | 20.28084 | 69.34551 | 34914 ft | 490 kts | 291° |
| 2026-05-07 14:53 | 20.30546 | 69.27841 | 34921 ft | 491 kts | 291° |
| 2026-05-07 14:54 | 20.33044 | 69.21041 | 34931 ft | 491 kts | 291° |
| 2026-05-07 14:54 | 20.35522 | 69.14322 | 34938 ft | 491 kts | 291° |
| 2026-05-07 14:55 | 20.38034 | 69.07515 | 34935 ft | 491 kts | 291° |
| 2026-05-07 14:55 | 20.40532 | 69.00740 | 34934 ft | 492 kts | 291° |
| 2026-05-07 14:56 | 20.43018 | 68.93990 | 34927 ft | 491 kts | 291° |
| 2026-05-07 14:56 | 20.45512 | 68.87206 | 34927 ft | 490 kts | 291° |
| 2026-05-07 14:57 | 20.47988 | 68.80463 | 34927 ft | 490 kts | 291° |
| 2026-05-07 14:57 | 20.50477 | 68.73674 | 34929 ft | 491 kts | 291° |
| 2026-05-07 14:58 | 20.52962 | 68.66888 | 34928 ft | 492 kts | 291° |
| 2026-05-07 14:58 | 20.55445 | 68.60099 | 34929 ft | 492 kts | 291° |
| 2026-05-07 14:59 | 20.57932 | 68.53288 | 34930 ft | 492 kts | 291° |
| 2026-05-07 14:59 | 20.60408 | 68.46496 | 34933 ft | 492 kts | 291° |
| 2026-05-07 15:00 | 20.62886 | 68.39690 | 34932 ft | 491 kts | 291° |
| 2026-05-07 15:00 | 20.65361 | 68.32877 | 34931 ft | 491 kts | 291° |
| 2026-05-07 15:01 | 20.67797 | 68.26090 | 34929 ft | 492 kts | 291° |
| 2026-05-07 15:01 | 20.70256 | 68.19264 | 34927 ft | 492 kts | 291° |
| 2026-05-07 15:02 | 20.72717 | 68.12457 | 34923 ft | 493 kts | 291° |
| 2026-05-07 15:02 | 20.75197 | 68.05598 | 34932 ft | 492 kts | 291° |
| 2026-05-07 15:03 | 20.77644 | 67.98820 | 34944 ft | 493 kts | 291° |
| 2026-05-07 15:03 | 20.80116 | 67.91966 | 34946 ft | 492 kts | 291° |
| 2026-05-07 15:04 | 20.82577 | 67.85129 | 34945 ft | 492 kts | 291° |
| 2026-05-07 15:04 | 20.85033 | 67.78298 | 34943 ft | 493 kts | 291° |
| 2026-05-07 15:05 | 20.87479 | 67.71486 | 34942 ft | 493 kts | 291° |
| 2026-05-07 15:05 | 20.89945 | 67.64607 | 34940 ft | 493 kts | 291° |
| 2026-05-07 15:06 | 20.92385 | 67.57791 | 34939 ft | 493 kts | 291° |
| 2026-05-07 15:06 | 20.94838 | 67.50927 | 34941 ft | 493 kts | 291° |
| 2026-05-07 15:07 | 20.97278 | 67.44093 | 34939 ft | 493 kts | 291° |
| 2026-05-07 15:07 | 20.99720 | 67.37241 | 34929 ft | 493 kts | 291° |
| 2026-05-07 15:08 | 21.02146 | 67.30387 | 34915 ft | 494 kts | 290° |
| 2026-05-07 15:08 | 21.04567 | 67.23502 | 34911 ft | 493 kts | 291° |
| 2026-05-07 15:09 | 21.06996 | 67.16627 | 34909 ft | 493 kts | 291° |
| 2026-05-07 15:09 | 21.09430 | 67.09754 | 34913 ft | 493 kts | 291° |
| 2026-05-07 15:10 | 21.11858 | 67.02890 | 34922 ft | 492 kts | 290° |
| 2026-05-07 15:10 | 21.14278 | 66.96036 | 34923 ft | 492 kts | 290° |
| 2026-05-07 15:11 | 21.16702 | 66.89162 | 34921 ft | 491 kts | 291° |
| 2026-05-07 15:11 | 21.19115 | 66.82313 | 34921 ft | 493 kts | 291° |
| 2026-05-07 15:12 | 21.21532 | 66.75442 | 34921 ft | 493 kts | 291° |
| 2026-05-07 15:12 | 21.23949 | 66.68562 | 34921 ft | 493 kts | 291° |
| 2026-05-07 15:13 | 21.26369 | 66.61664 | 34921 ft | 493 kts | 291° |
| 2026-05-07 15:13 | 21.28787 | 66.54759 | 34921 ft | 493 kts | 291° |
| 2026-05-07 15:14 | 21.31184 | 66.47904 | 34918 ft | 492 kts | 291° |
| 2026-05-07 15:14 | 21.33586 | 66.41026 | 34940 ft | 491 kts | 291° |
| 2026-05-07 15:15 | 21.34781 | 66.37600 | 35142 ft | 487 kts | 291° |
| 2026-05-07 15:15 | 21.35965 | 66.34203 | 35158 ft | 487 kts | 290° |
| 2026-05-07 15:15 | 21.38307 | 66.27398 | 35216 ft | 486 kts | 290° |
| 2026-05-07 15:16 | 21.39463 | 66.24037 | 35486 ft | 481 kts | 290° |
| 2026-05-07 15:16 | 21.40624 | 66.20676 | 35759 ft | 476 kts | 290° |
| 2026-05-07 15:16 | 21.41760 | 66.17391 | 36029 ft | 471 kts | 290° |
| 2026-05-07 15:16 | 21.42902 | 66.14098 | 36303 ft | 466 kts | 290° |
| 2026-05-07 15:17 | 21.44023 | 66.10861 | 36576 ft | 460 kts | 290° |
| 2026-05-07 15:17 | 21.45127 | 66.07674 | 36850 ft | 455 kts | 290° |
| 2026-05-07 15:17 | 21.46222 | 66.04511 | 37122 ft | 449 kts | 290° |
| 2026-05-07 15:17 | 21.47302 | 66.01392 | 37385 ft | 443 kts | 290° |
| 2026-05-07 15:18 | 21.48370 | 65.98300 | 37544 ft | 439 kts | 290° |
| 2026-05-07 15:18 | 21.49422 | 65.95255 | 37700 ft | 435 kts | 290° |
| 2026-05-07 15:18 | 21.50467 | 65.92230 | 37823 ft | 432 kts | 290° |
| 2026-05-07 15:18 | 21.51508 | 65.89212 | 37841 ft | 431 kts | 290° |
| 2026-05-07 15:19 | 21.53578 | 65.83208 | 37838 ft | 429 kts | 290° |
| 2026-05-07 15:19 | 21.55639 | 65.77220 | 37836 ft | 427 kts | 290° |
| 2026-05-07 15:20 | 21.57682 | 65.71277 | 37835 ft | 425 kts | 290° |
| 2026-05-07 15:20 | 21.59721 | 65.65336 | 37831 ft | 423 kts | 290° |
| 2026-05-07 15:21 | 21.61754 | 65.59405 | 37826 ft | 421 kts | 290° |
| 2026-05-07 15:21 | 21.63767 | 65.53528 | 37825 ft | 419 kts | 290° |
| 2026-05-07 15:22 | 21.65770 | 65.47669 | 37825 ft | 421 kts | 290° |
| 2026-05-07 15:22 | 21.67804 | 65.41717 | 37823 ft | 426 kts | 290° |
| 2026-05-07 15:23 | 21.69848 | 65.35726 | 37820 ft | 431 kts | 290° |
| 2026-05-07 15:23 | 21.71907 | 65.29633 | 37821 ft | 436 kts | 290° |
| 2026-05-07 15:24 | 21.73980 | 65.23480 | 37823 ft | 441 kts | 290° |
| 2026-05-07 15:24 | 21.76085 | 65.17263 | 37823 ft | 447 kts | 290° |
| 2026-05-07 15:25 | 21.78230 | 65.10935 | 37824 ft | 453 kts | 290° |
| 2026-05-07 15:25 | 21.80392 | 65.04555 | 37822 ft | 458 kts | 290° |
| 2026-05-07 15:26 | 21.82585 | 64.98074 | 37822 ft | 464 kts | 290° |
| 2026-05-07 15:26 | 21.84810 | 64.91486 | 37818 ft | 469 kts | 290° |
| 2026-05-07 15:27 | 21.87038 | 64.84882 | 37821 ft | 474 kts | 290° |
| 2026-05-07 15:27 | 21.89298 | 64.78170 | 37822 ft | 479 kts | 290° |
| 2026-05-07 15:28 | 21.91581 | 64.71382 | 37821 ft | 484 kts | 290° |
| 2026-05-07 15:28 | 21.93885 | 64.64520 | 37819 ft | 488 kts | 290° |
| 2026-05-07 15:29 | 21.96201 | 64.57616 | 37820 ft | 492 kts | 290° |
| 2026-05-07 15:29 | 21.98522 | 64.50681 | 37819 ft | 493 kts | 290° |
| 2026-05-07 15:30 | 22.00845 | 64.43729 | 37818 ft | 494 kts | 290° |
| 2026-05-07 15:30 | 22.03161 | 64.36786 | 37816 ft | 495 kts | 290° |
| 2026-05-07 15:31 | 22.05474 | 64.29796 | 37817 ft | 495 kts | 289° |
| 2026-05-07 15:31 | 22.07783 | 64.22776 | 37816 ft | 495 kts | 290° |
| 2026-05-07 15:32 | 22.10089 | 64.15801 | 37818 ft | 495 kts | 290° |
| 2026-05-07 15:32 | 22.12406 | 64.08802 | 37809 ft | 496 kts | 290° |
| 2026-05-07 15:33 | 22.14724 | 64.01793 | 37798 ft | 496 kts | 290° |
| 2026-05-07 15:33 | 22.17039 | 63.94785 | 37793 ft | 496 kts | 290° |
| 2026-05-07 15:34 | 22.19340 | 63.87810 | 37793 ft | 495 kts | 290° |
| 2026-05-07 15:34 | 22.21652 | 63.80794 | 37798 ft | 495 kts | 290° |
| 2026-05-07 15:35 | 22.23942 | 63.73830 | 37808 ft | 495 kts | 290° |
| 2026-05-07 15:35 | 22.26243 | 63.66823 | 37802 ft | 495 kts | 289° |
| 2026-05-07 15:36 | 22.28540 | 63.59817 | 37804 ft | 495 kts | 289° |
| 2026-05-07 15:36 | 22.30816 | 63.52861 | 37801 ft | 495 kts | 289° |
| 2026-05-07 15:37 | 22.33113 | 63.45830 | 37799 ft | 495 kts | 290° |
| 2026-05-07 15:37 | 22.35394 | 63.38835 | 37796 ft | 494 kts | 290° |
| 2026-05-07 15:38 | 22.37674 | 63.31813 | 37797 ft | 494 kts | 289° |
| 2026-05-07 15:38 | 22.39917 | 63.24821 | 37794 ft | 494 kts | 289° |
| 2026-05-07 15:39 | 22.42164 | 63.17855 | 37795 ft | 494 kts | 289° |
| 2026-05-07 15:39 | 22.44442 | 63.10860 | 37797 ft | 494 kts | 290° |
| 2026-05-07 15:40 | 22.47080 | 63.03988 | 37800 ft | 494 kts | 293° |
| 2026-05-07 15:40 | 22.49807 | 62.97184 | 37801 ft | 494 kts | 293° |
| 2026-05-07 15:41 | 22.52496 | 62.90374 | 37795 ft | 493 kts | 293° |
| 2026-05-07 15:41 | 22.55165 | 62.83550 | 37793 ft | 493 kts | 292° |
| 2026-05-07 15:42 | 22.57826 | 62.76720 | 37792 ft | 493 kts | 292° |
| 2026-05-07 15:42 | 22.60478 | 62.69901 | 37794 ft | 493 kts | 292° |
| 2026-05-07 15:43 | 22.63127 | 62.63081 | 37784 ft | 493 kts | 292° |
| 2026-05-07 15:43 | 22.65789 | 62.56217 | 37782 ft | 492 kts | 292° |
| 2026-05-07 15:44 | 22.68426 | 62.49407 | 37783 ft | 492 kts | 292° |
| 2026-05-07 15:44 | 22.71065 | 62.42583 | 37779 ft | 492 kts | 292° |
| 2026-05-07 15:45 | 22.73707 | 62.35741 | 37775 ft | 492 kts | 292° |
| 2026-05-07 15:45 | 22.76334 | 62.28871 | 37773 ft | 492 kts | 292° |
| 2026-05-07 15:46 | 22.80252 | 62.18611 | 37763 ft | 491 kts | 292° |
| 2026-05-07 15:47 | 22.82876 | 62.11771 | 37771 ft | 491 kts | 292° |
| 2026-05-07 15:47 | 22.85490 | 62.04954 | 37775 ft | 491 kts | 292° |
| 2026-05-07 15:48 | 22.88109 | 61.98117 | 37781 ft | 491 kts | 292° |
| 2026-05-07 15:48 | 22.90734 | 61.91253 | 37778 ft | 491 kts | 292° |
| 2026-05-07 15:49 | 22.93346 | 61.84410 | 37778 ft | 490 kts | 292° |
| 2026-05-07 15:49 | 22.95945 | 61.77594 | 37778 ft | 491 kts | 292° |
| 2026-05-07 15:50 | 22.98549 | 61.70753 | 37779 ft | 491 kts | 292° |
| 2026-05-07 15:50 | 23.01151 | 61.63907 | 37775 ft | 490 kts | 292° |
| 2026-05-07 15:51 | 23.03754 | 61.57050 | 37775 ft | 490 kts | 292° |
| 2026-05-07 15:51 | 23.06350 | 61.50200 | 37776 ft | 490 kts | 292° |
| 2026-05-07 15:52 | 23.08934 | 61.43369 | 37771 ft | 490 kts | 292° |
| 2026-05-07 15:52 | 23.11521 | 61.36519 | 37768 ft | 489 kts | 292° |
| 2026-05-07 15:53 | 23.14067 | 61.29716 | 37771 ft | 489 kts | 291° |
| 2026-05-07 15:53 | 23.16630 | 61.22834 | 37762 ft | 490 kts | 291° |
| 2026-05-07 15:54 | 23.19186 | 61.16010 | 37755 ft | 490 kts | 291° |
| 2026-05-07 15:54 | 23.21771 | 61.09121 | 37751 ft | 490 kts | 291° |
| 2026-05-07 15:55 | 23.24337 | 61.02278 | 37752 ft | 489 kts | 291° |
| 2026-05-07 15:55 | 23.26896 | 60.95444 | 37756 ft | 488 kts | 291° |
| 2026-05-07 15:56 | 23.29452 | 60.88604 | 37751 ft | 488 kts | 291° |
| 2026-05-07 15:56 | 23.32010 | 60.81751 | 37751 ft | 488 kts | 291° |
| 2026-05-07 15:57 | 23.34559 | 60.74912 | 37755 ft | 488 kts | 291° |
| 2026-05-07 15:57 | 23.37102 | 60.68077 | 37761 ft | 489 kts | 291° |
| 2026-05-07 15:58 | 23.39640 | 60.61221 | 37764 ft | 487 kts | 291° |
| 2026-05-07 15:58 | 23.42166 | 60.54331 | 37768 ft | 487 kts | 291° |
| 2026-05-07 15:59 | 23.44665 | 60.47501 | 37769 ft | 487 kts | 291° |
| 2026-05-07 15:59 | 23.47176 | 60.40632 | 37768 ft | 488 kts | 291° |
| 2026-05-07 16:00 | 23.49669 | 60.33803 | 37764 ft | 487 kts | 291° |
| 2026-05-07 16:00 | 23.52144 | 60.26929 | 37760 ft | 486 kts | 290° |
| 2026-05-07 16:01 | 23.54624 | 60.20060 | 37752 ft | 486 kts | 291° |
| 2026-05-07 16:01 | 23.57098 | 60.13237 | 37752 ft | 485 kts | 291° |
| 2026-05-07 16:02 | 23.59572 | 60.06417 | 37752 ft | 484 kts | 291° |
| 2026-05-07 16:02 | 23.62048 | 59.99584 | 37747 ft | 484 kts | 291° |
| 2026-05-07 16:03 | 23.64529 | 59.92724 | 37747 ft | 484 kts | 291° |
| 2026-05-07 16:03 | 23.67000 | 59.85881 | 37745 ft | 484 kts | 291° |
| 2026-05-07 16:04 | 23.69457 | 59.79067 | 37753 ft | 485 kts | 291° |
| 2026-05-07 16:04 | 23.71921 | 59.72221 | 37751 ft | 484 kts | 291° |
| 2026-05-07 16:05 | 23.74381 | 59.65377 | 37751 ft | 483 kts | 291° |
| 2026-05-07 16:05 | 23.76826 | 59.58563 | 37760 ft | 482 kts | 291° |
| 2026-05-07 16:06 | 23.79275 | 59.51726 | 37758 ft | 483 kts | 291° |
| 2026-05-07 16:06 | 23.81714 | 59.44909 | 37763 ft | 482 kts | 290° |
| 2026-05-07 16:07 | 23.84158 | 59.38065 | 37766 ft | 482 kts | 290° |
| 2026-05-07 16:07 | 23.86573 | 59.31261 | 37762 ft | 482 kts | 290° |
| 2026-05-07 16:08 | 23.88976 | 59.24422 | 37766 ft | 482 kts | 290° |
| 2026-05-07 16:08 | 23.91391 | 59.17588 | 37763 ft | 482 kts | 290° |
| 2026-05-07 16:09 | 23.93767 | 59.10739 | 37765 ft | 482 kts | 289° |
| 2026-05-07 16:09 | 23.95995 | 59.03785 | 37755 ft | 482 kts | 288° |
| 2026-05-07 16:10 | 23.98202 | 58.96845 | 37742 ft | 481 kts | 288° |
| 2026-05-07 16:10 | 24.00402 | 58.89965 | 37737 ft | 480 kts | 288° |
| 2026-05-07 16:11 | 24.02615 | 58.83049 | 37741 ft | 480 kts | 289° |
| 2026-05-07 16:11 | 24.04818 | 58.76162 | 37738 ft | 480 kts | 288° |
| 2026-05-07 16:12 | 24.07024 | 58.69251 | 37741 ft | 480 kts | 288° |
| 2026-05-07 16:12 | 24.09217 | 58.62370 | 37739 ft | 480 kts | 288° |
| 2026-05-07 16:13 | 24.11424 | 58.55427 | 37740 ft | 480 kts | 288° |
| 2026-05-07 16:13 | 24.13618 | 58.48511 | 37742 ft | 481 kts | 288° |
| 2026-05-07 16:14 | 24.15803 | 58.41613 | 37743 ft | 481 kts | 288° |
| 2026-05-07 16:14 | 24.17991 | 58.34699 | 37747 ft | 480 kts | 288° |
| 2026-05-07 16:15 | 24.20148 | 58.27780 | 37747 ft | 480 kts | 288° |
| 2026-05-07 16:15 | 24.22304 | 58.20866 | 37751 ft | 479 kts | 288° |
| 2026-05-07 16:16 | 24.24476 | 58.13947 | 37746 ft | 478 kts | 288° |
| 2026-05-07 16:16 | 24.26642 | 58.07050 | 37751 ft | 479 kts | 288° |
| 2026-05-07 16:17 | 24.28811 | 58.00132 | 37749 ft | 479 kts | 288° |
| 2026-05-07 16:17 | 24.30983 | 57.93197 | 37762 ft | 479 kts | 288° |
| 2026-05-07 16:18 | 24.33144 | 57.86281 | 37760 ft | 479 kts | 288° |
| 2026-05-07 16:18 | 24.35337 | 57.79424 | 37753 ft | 479 kts | 289° |
| 2026-05-07 16:19 | 24.37641 | 57.72568 | 37753 ft | 478 kts | 289° |
| 2026-05-07 16:19 | 24.39927 | 57.65772 | 37753 ft | 477 kts | 289° |
| 2026-05-07 16:20 | 24.42204 | 57.58969 | 37753 ft | 478 kts | 289° |
| 2026-05-07 16:20 | 24.44489 | 57.52119 | 37753 ft | 478 kts | 289° |
| 2026-05-07 16:21 | 24.46755 | 57.45314 | 37753 ft | 477 kts | 289° |
| 2026-05-07 16:21 | 24.49031 | 57.38463 | 37749 ft | 477 kts | 289° |
| 2026-05-07 16:21 | 24.50163 | 57.35055 | 37555 ft | 482 kts | 289° |
| 2026-05-07 16:22 | 24.51298 | 57.31604 | 37122 ft | 483 kts | 288° |
| 2026-05-07 16:22 | 24.52417 | 57.28174 | 36703 ft | 478 kts | 288° |
| 2026-05-07 16:22 | 24.53535 | 57.24753 | 36274 ft | 468 kts | 289° |
| 2026-05-07 16:22 | 24.54619 | 57.21450 | 35843 ft | 459 kts | 289° |
| 2026-05-07 16:23 | 24.55705 | 57.18148 | 35414 ft | 455 kts | 289° |
| 2026-05-07 16:23 | 24.56774 | 57.14903 | 34990 ft | 455 kts | 289° |
| 2026-05-07 16:23 | 24.57849 | 57.11642 | 34567 ft | 455 kts | 289° |
| 2026-05-07 16:23 | 24.58915 | 57.08407 | 34146 ft | 454 kts | 289° |
| 2026-05-07 16:24 | 24.60004 | 57.05101 | 33715 ft | 450 kts | 289° |
| 2026-05-07 16:24 | 24.61062 | 57.01888 | 33293 ft | 446 kts | 289° |
| 2026-05-07 16:24 | 24.62098 | 56.98736 | 32876 ft | 442 kts | 289° |
| 2026-05-07 16:24 | 24.63143 | 56.95557 | 32484 ft | 440 kts | 289° |
| 2026-05-07 16:25 | 24.64178 | 56.92405 | 32106 ft | 437 kts | 289° |
| 2026-05-07 16:25 | 24.65194 | 56.89310 | 31735 ft | 435 kts | 289° |
| 2026-05-07 16:25 | 24.66221 | 56.86179 | 31356 ft | 433 kts | 289° |
| 2026-05-07 16:25 | 24.67240 | 56.83065 | 30977 ft | 431 kts | 289° |
| 2026-05-07 16:26 | 24.68244 | 56.79999 | 30601 ft | 429 kts | 289° |
| 2026-05-07 16:26 | 24.69257 | 56.76902 | 30218 ft | 426 kts | 289° |
| 2026-05-07 16:26 | 24.70245 | 56.73880 | 29848 ft | 424 kts | 289° |
| 2026-05-07 16:26 | 24.70916 | 56.71825 | 29594 ft | 422 kts | 289° |
| 2026-05-07 16:27 | 24.72222 | 56.67823 | 29093 ft | 419 kts | 289° |
| 2026-05-07 16:27 | 24.73199 | 56.64824 | 28718 ft | 417 kts | 289° |
| 2026-05-07 16:27 | 24.74180 | 56.61811 | 28355 ft | 415 kts | 289° |
| 2026-05-07 16:27 | 24.75141 | 56.58857 | 27878 ft | 416 kts | 289° |
| 2026-05-07 16:28 | 24.76111 | 56.55870 | 27381 ft | 414 kts | 289° |
| 2026-05-07 16:28 | 24.77069 | 56.52920 | 26888 ft | 410 kts | 289° |
| 2026-05-07 16:28 | 24.78022 | 56.49985 | 26398 ft | 407 kts | 289° |
| 2026-05-07 16:28 | 24.78973 | 56.47050 | 25902 ft | 406 kts | 289° |
| 2026-05-07 16:29 | 24.79925 | 56.44111 | 25408 ft | 406 kts | 289° |
| 2026-05-07 16:29 | 24.80856 | 56.41235 | 24921 ft | 404 kts | 289° |
| 2026-05-07 16:29 | 24.81799 | 56.38318 | 24425 ft | 402 kts | 289° |
| 2026-05-07 16:29 | 24.82731 | 56.35435 | 23843 ft | 402 kts | 289° |
| 2026-05-07 16:30 | 24.83662 | 56.32529 | 23302 ft | 400 kts | 289° |
| 2026-05-07 16:30 | 24.84571 | 56.29663 | 22793 ft | 398 kts | 289° |
| 2026-05-07 16:30 | 24.85486 | 56.26793 | 22266 ft | 396 kts | 289° |
| 2026-05-07 16:30 | 24.86388 | 56.23974 | 21768 ft | 394 kts | 289° |
| 2026-05-07 16:31 | 24.87290 | 56.21167 | 21169 ft | 389 kts | 289° |
| 2026-05-07 16:31 | 24.88191 | 56.18360 | 20160 ft | 388 kts | 290° |
| 2026-05-07 16:31 | 24.89076 | 56.15604 | 19247 ft | 386 kts | 290° |
| 2026-05-07 16:31 | 24.89969 | 56.12826 | 18357 ft | 382 kts | 290° |
| 2026-05-07 16:32 | 24.90839 | 56.10117 | 17478 ft | 379 kts | 290° |
| 2026-05-07 16:32 | 24.91714 | 56.07392 | 16579 ft | 376 kts | 290° |
| 2026-05-07 16:32 | 24.92580 | 56.04695 | 15741 ft | 372 kts | 290° |
| 2026-05-07 16:32 | 24.93432 | 56.02040 | 14921 ft | 368 kts | 290° |
| 2026-05-07 16:33 | 24.94270 | 55.99422 | 14096 ft | 364 kts | 290° |
| 2026-05-07 16:33 | 24.95101 | 55.96826 | 13307 ft | 359 kts | 290° |
| 2026-05-07 16:33 | 24.95925 | 55.94250 | 12515 ft | 354 kts | 290° |
| 2026-05-07 16:33 | 24.96733 | 55.91718 | 11811 ft | 347 kts | 290° |
| 2026-05-07 16:34 | 24.97515 | 55.89268 | 11108 ft | 341 kts | 290° |
| 2026-05-07 16:34 | 24.98293 | 55.86829 | 10406 ft | 334 kts | 290° |
| 2026-05-07 16:34 | 24.99055 | 55.84443 | 9692 ft | 328 kts | 290° |
| 2026-05-07 16:34 | 24.99861 | 55.82120 | 9013 ft | 319 kts | 298° |
| 2026-05-07 16:35 | 25.00938 | 55.80067 | 8682 ft | 310 kts | 303° |
| 2026-05-07 16:35 | 25.02090 | 55.78052 | 8329 ft | 307 kts | 303° |
| 2026-05-07 16:35 | 25.03219 | 55.76071 | 7967 ft | 305 kts | 302° |
| 2026-05-07 16:35 | 25.04334 | 55.74095 | 7613 ft | 302 kts | 302° |
| 2026-05-07 16:36 | 25.05427 | 55.72148 | 7239 ft | 298 kts | 302° |
| 2026-05-07 16:36 | 25.06488 | 55.70252 | 6701 ft | 291 kts | 302° |
| 2026-05-07 16:36 | 25.07541 | 55.68365 | 5990 ft | 290 kts | 302° |
| 2026-05-07 16:36 | 25.08604 | 55.66460 | 5291 ft | 288 kts | 301° |
| 2026-05-07 16:37 | 25.09649 | 55.64588 | 4607 ft | 286 kts | 301° |
| 2026-05-07 16:37 | 25.10670 | 55.62759 | 4010 ft | 281 kts | 301° |
| 2026-05-07 16:37 | 25.11684 | 55.60940 | 3662 ft | 272 kts | 300° |
| 2026-05-07 16:37 | 25.12654 | 55.59200 | 3378 ft | 260 kts | 300° |
| 2026-05-07 16:38 | 25.13567 | 55.57564 | 3115 ft | 242 kts | 300° |
| 2026-05-07 16:38 | 25.14410 | 55.56042 | 2850 ft | 226 kts | 299° |
| 2026-05-07 16:38 | 25.15195 | 55.54604 | 2580 ft | 212 kts | 300° |
| 2026-05-07 16:38 | 25.15942 | 55.53249 | 2321 ft | 200 kts | 300° |
| 2026-05-07 16:39 | 25.16647 | 55.51977 | 2103 ft | 188 kts | 301° |
| 2026-05-07 16:39 | 25.17320 | 55.50769 | 2045 ft | 182 kts | 301° |
| 2026-05-07 16:39 | 25.17949 | 55.49638 | 1995 ft | 164 kts | 301° |
| 2026-05-07 16:39 | 25.18525 | 55.48603 | 1861 ft | 156 kts | 301° |
| 2026-05-07 16:40 | 25.19075 | 55.47613 | 1626 ft | 146 kts | 301° |
| 2026-05-07 16:40 | 25.19591 | 55.46685 | 1425 ft | 138 kts | 301° |
| 2026-05-07 16:40 | 25.20089 | 55.45790 | 1286 ft | 136 kts | 301° |
| 2026-05-07 16:40 | 25.20587 | 55.44895 | 1140 ft | 138 kts | 301° |
| 2026-05-07 16:41 | 25.21098 | 55.43966 | 1006 ft | 140 kts | 301° |
| 2026-05-07 16:41 | 25.21611 | 55.43037 | 843 ft | 143 kts | 301° |
| 2026-05-07 16:41 | 25.22136 | 55.42104 | 646 ft | 143 kts | 302° |
| 2026-05-07 16:41 | 25.22652 | 55.41168 | 444 ft | 140 kts | 301° |
| 2026-05-07 16:42 | 25.23152 | 55.40263 | 250 ft | 138 kts | 302° |
| 2026-05-07 16:42 | 25.23658 | 55.39365 | 63 ft | 139 kts | 302° |
| 2026-05-07 16:42 | 25.24103 | 55.38566 | 58 ft | 98 kts | 302° |
| 2026-05-07 16:42 | 25.24382 | 55.38063 | 54 ft | 55 kts | 301° |
| 2026-05-07 16:43 | 25.24589 | 55.37691 | 51 ft | 56 kts | 302° |
| 2026-05-07 16:43 | 25.24789 | 55.37335 | 51 ft | 52 kts | 302° |
| 2026-05-07 16:43 | 25.24965 | 55.37013 | 48 ft | 43 kts | 299° |
| 2026-05-07 16:43 | 25.25019 | 55.36720 | 47 ft | 34 kts | 272° |
| 2026-05-07 16:44 | 25.25031 | 55.36455 | 43 ft | 35 kts | 281° |
| 2026-05-07 16:44 | 25.25142 | 55.36212 | 39 ft | 35 kts | 301° |
| 2026-05-07 16:44 | 25.25267 | 55.35985 | 36 ft | 35 kts | 302° |
| 2026-05-07 16:44 | 25.25392 | 55.35758 | 37 ft | 33 kts | 302° |
| 2026-05-07 16:45 | 25.25515 | 55.35537 | 31 ft | 34 kts | 301° |
| 2026-05-07 16:45 | 25.25639 | 55.35313 | 33 ft | 33 kts | 300° |
| 2026-05-07 16:45 | 25.25760 | 55.35099 | 32 ft | 32 kts | 300° |
| 2026-05-07 16:45 | 25.25873 | 55.34882 | 32 ft | 32 kts | 300° |
| 2026-05-07 16:46 | 25.25990 | 55.34670 | 29 ft | 32 kts | 304° |
| 2026-05-07 16:46 | 25.26089 | 55.34491 | 28 ft | 20 kts | 294° |
| 2026-05-07 16:46 | 25.26103 | 55.34347 | 26 ft | 12 kts | 245° |
| 2026-05-07 16:46 | 25.26032 | 55.34294 | 25 ft | 8 kts | 211° |
| 2026-05-07 16:47 | 25.26003 | 55.34275 | 25 ft | 1 kts | 211° |